sensor_id;sensor_type;location;lat;lon;timestamp;P1;durP1;ratioP1;P2;durP2;ratioP2
34695;SDS011;20918;51.138;17.370;2022-07-29T00:01:22;8.65;;;3.12;;
34695;SDS011;20918;51.138;17.370;2022-07-29T00:04:23;4.58;;;3.08;;
34695;SDS011;20918;51.138;17.370;2022-07-29T00:07:25;7.00;;;3.33;;
34695;SDS011;20918;51.138;17.370;2022-07-29T00:10:26;6.40;;;3.00;;
34695;SDS011;20918;51.138;17.370;2022-07-29T00:13:28;5.40;;;3.50;;
34695;SDS011;20918;51.138;17.370;2022-07-29T00:16:29;8.63;;;3.35;;
34695;SDS011;20918;51.138;17.370;2022-07-29T00:19:30;8.73;;;3.37;;
34695;SDS011;20918;51.138;17.370;2022-07-29T00:22:31;5.87;;;3.10;;
34695;SDS011;20918;51.138;17.370;2022-07-29T00:25:32;5.53;;;3.30;;
34695;SDS011;20918;51.138;17.370;2022-07-29T00:28:33;12.50;;;3.22;;
34695;SDS011;20918;51.138;17.370;2022-07-29T00:31:34;5.55;;;3.22;;
34695;SDS011;20918;51.138;17.370;2022-07-29T00:34:36;5.00;;;2.55;;
34695;SDS011;20918;51.138;17.370;2022-07-29T00:37:56;7.33;;;3.20;;
34695;SDS011;20918;51.138;17.370;2022-07-29T00:40:57;6.65;;;3.00;;
34695;SDS011;20918;51.138;17.370;2022-07-29T00:43:58;10.68;;;3.85;;
34695;SDS011;20918;51.138;17.370;2022-07-29T00:46:59;7.10;;;3.20;;
34695;SDS011;20918;51.138;17.370;2022-07-29T00:50:00;7.78;;;3.33;;
34695;SDS011;20918;51.138;17.370;2022-07-29T00:53:02;7.97;;;3.22;;
34695;SDS011;20918;51.138;17.370;2022-07-29T00:56:05;5.80;;;3.35;;
34695;SDS011;20918;51.138;17.370;2022-07-29T00:59:06;14.07;;;3.75;;
34695;SDS011;20918;51.138;17.370;2022-07-29T01:02:07;5.62;;;3.27;;
34695;SDS011;20918;51.138;17.370;2022-07-29T01:05:08;6.72;;;3.12;;
34695;SDS011;20918;51.138;17.370;2022-07-29T01:08:12;5.83;;;3.37;;
34695;SDS011;20918;51.138;17.370;2022-07-29T01:11:15;10.90;;;3.60;;
34695;SDS011;20918;51.138;17.370;2022-07-29T01:14:18;11.83;;;3.20;;
34695;SDS011;20918;51.138;17.370;2022-07-29T01:24:28;7.67;;;3.22;;
34695;SDS011;20918;51.138;17.370;2022-07-29T01:31:35;7.33;;;3.27;;
34695;SDS011;20918;51.138;17.370;2022-07-29T01:34:53;4.05;;;3.00;;
34695;SDS011;20918;51.138;17.370;2022-07-29T01:38:16;10.45;;;4.30;;
34695;SDS011;20918;51.138;17.370;2022-07-29T01:41:25;6.47;;;3.45;;
34695;SDS011;20918;51.138;17.370;2022-07-29T01:44:34;11.05;;;3.80;;
34695;SDS011;20918;51.138;17.370;2022-07-29T01:48:02;7.90;;;3.55;;
34695;SDS011;20918;51.138;17.370;2022-07-29T01:51:30;7.17;;;3.45;;
34695;SDS011;20918;51.138;17.370;2022-07-29T01:54:37;5.58;;;3.33;;
34695;SDS011;20918;51.138;17.370;2022-07-29T01:57:56;11.38;;;3.85;;
34695;SDS011;20918;51.138;17.370;2022-07-29T02:00:59;8.58;;;4.10;;
34695;SDS011;20918;51.138;17.370;2022-07-29T02:04:02;12.18;;;3.95;;
34695;SDS011;20918;51.138;17.370;2022-07-29T02:07:07;8.75;;;3.65;;
34695;SDS011;20918;51.138;17.370;2022-07-29T02:10:11;6.40;;;3.42;;
34695;SDS011;20918;51.138;17.370;2022-07-29T02:13:15;6.60;;;2.98;;
34695;SDS011;20918;51.138;17.370;2022-07-29T02:16:18;9.43;;;3.58;;
34695;SDS011;20918;51.138;17.370;2022-07-29T02:19:25;7.78;;;3.40;;
34695;SDS011;20918;51.138;17.370;2022-07-29T02:22:29;5.45;;;3.10;;
34695;SDS011;20918;51.138;17.370;2022-07-29T02:25:32;10.10;;;3.67;;
34695;SDS011;20918;51.138;17.370;2022-07-29T02:28:33;6.53;;;3.60;;
34695;SDS011;20918;51.138;17.370;2022-07-29T02:31:34;8.50;;;3.45;;
34695;SDS011;20918;51.138;17.370;2022-07-29T02:34:37;7.08;;;3.72;;
34695;SDS011;20918;51.138;17.370;2022-07-29T02:37:41;9.23;;;3.65;;
34695;SDS011;20918;51.138;17.370;2022-07-29T02:40:44;6.37;;;3.30;;
34695;SDS011;20918;51.138;17.370;2022-07-29T02:43:47;6.67;;;3.50;;
34695;SDS011;20918;51.138;17.370;2022-07-29T02:47:02;10.88;;;3.52;;
34695;SDS011;20918;51.138;17.370;2022-07-29T02:50:30;11.70;;;3.87;;
34695;SDS011;20918;51.138;17.370;2022-07-29T02:53:34;7.60;;;3.62;;
34695;SDS011;20918;51.138;17.370;2022-07-29T02:56:37;5.92;;;3.40;;
34695;SDS011;20918;51.138;17.370;2022-07-29T02:59:41;5.60;;;3.60;;
34695;SDS011;20918;51.138;17.370;2022-07-29T03:02:45;10.23;;;4.20;;
34695;SDS011;20918;51.138;17.370;2022-07-29T03:05:52;8.43;;;3.60;;
34695;SDS011;20918;51.138;17.370;2022-07-29T03:08:58;7.65;;;3.10;;
34695;SDS011;20918;51.138;17.370;2022-07-29T03:12:00;5.90;;;2.90;;
34695;SDS011;20918;51.138;17.370;2022-07-29T03:15:04;10.80;;;3.95;;
34695;SDS011;20918;51.138;17.370;2022-07-29T03:18:08;7.28;;;3.02;;
34695;SDS011;20918;51.138;17.370;2022-07-29T03:21:10;7.42;;;3.37;;
34695;SDS011;20918;51.138;17.370;2022-07-29T03:24:23;8.88;;;3.40;;
34695;SDS011;20918;51.138;17.370;2022-07-29T03:27:28;6.28;;;3.15;;
34695;SDS011;20918;51.138;17.370;2022-07-29T03:30:29;5.65;;;3.12;;
34695;SDS011;20918;51.138;17.370;2022-07-29T03:33:31;7.55;;;3.20;;
34695;SDS011;20918;51.138;17.370;2022-07-29T03:36:31;8.30;;;3.85;;
34695;SDS011;20918;51.138;17.370;2022-07-29T03:39:34;8.65;;;3.20;;
34695;SDS011;20918;51.138;17.370;2022-07-29T03:42:39;10.13;;;3.92;;
34695;SDS011;20918;51.138;17.370;2022-07-29T03:45:43;9.90;;;3.52;;
34695;SDS011;20918;51.138;17.370;2022-07-29T03:48:48;7.72;;;3.42;;
34695;SDS011;20918;51.138;17.370;2022-07-29T03:51:53;6.17;;;3.37;;
34695;SDS011;20918;51.138;17.370;2022-07-29T03:54:55;6.00;;;3.20;;
34695;SDS011;20918;51.138;17.370;2022-07-29T03:57:56;9.00;;;3.58;;
34695;SDS011;20918;51.138;17.370;2022-07-29T04:00:58;8.70;;;2.98;;
34695;SDS011;20918;51.138;17.370;2022-07-29T04:04:03;14.30;;;3.27;;
34695;SDS011;20918;51.138;17.370;2022-07-29T04:07:05;7.35;;;3.40;;
34695;SDS011;20918;51.138;17.370;2022-07-29T04:10:06;7.70;;;3.27;;
34695;SDS011;20918;51.138;17.370;2022-07-29T04:13:08;9.73;;;3.50;;
34695;SDS011;20918;51.138;17.370;2022-07-29T04:16:09;6.58;;;3.52;;
34695;SDS011;20918;51.138;17.370;2022-07-29T04:19:10;6.00;;;3.50;;
34695;SDS011;20918;51.138;17.370;2022-07-29T04:22:11;6.08;;;3.47;;
34695;SDS011;20918;51.138;17.370;2022-07-29T04:25:12;10.75;;;3.45;;
34695;SDS011;20918;51.138;17.370;2022-07-29T04:28:13;4.65;;;3.10;;
34695;SDS011;20918;51.138;17.370;2022-07-29T04:31:14;4.12;;;2.98;;
34695;SDS011;20918;51.138;17.370;2022-07-29T04:34:15;8.03;;;2.92;;
34695;SDS011;20918;51.138;17.370;2022-07-29T04:37:16;5.90;;;3.52;;
34695;SDS011;20918;51.138;17.370;2022-07-29T04:40:17;17.00;;;3.62;;
34695;SDS011;20918;51.138;17.370;2022-07-29T04:43:19;6.97;;;3.08;;
34695;SDS011;20918;51.138;17.370;2022-07-29T04:46:20;3.37;;;2.75;;
34695;SDS011;20918;51.138;17.370;2022-07-29T04:49:21;6.03;;;3.08;;
34695;SDS011;20918;51.138;17.370;2022-07-29T04:52:22;3.52;;;2.85;;
34695;SDS011;20918;51.138;17.370;2022-07-29T04:55:23;5.37;;;2.65;;
34695;SDS011;20918;51.138;17.370;2022-07-29T04:58:25;7.30;;;3.25;;
34695;SDS011;20918;51.138;17.370;2022-07-29T05:01:26;9.98;;;2.60;;
34695;SDS011;20918;51.138;17.370;2022-07-29T05:04:27;3.60;;;2.62;;
34695;SDS011;20918;51.138;17.370;2022-07-29T05:07:28;9.10;;;3.22;;
34695;SDS011;20918;51.138;17.370;2022-07-29T05:10:29;6.58;;;2.77;;
34695;SDS011;20918;51.138;17.370;2022-07-29T05:13:31;7.83;;;2.70;;
34695;SDS011;20918;51.138;17.370;2022-07-29T05:16:32;7.60;;;2.55;;
34695;SDS011;20918;51.138;17.370;2022-07-29T05:19:33;5.65;;;2.70;;
34695;SDS011;20918;51.138;17.370;2022-07-29T05:22:35;4.75;;;2.70;;
34695;SDS011;20918;51.138;17.370;2022-07-29T05:25:36;5.80;;;2.67;;
34695;SDS011;20918;51.138;17.370;2022-07-29T05:28:37;6.67;;;2.85;;
34695;SDS011;20918;51.138;17.370;2022-07-29T05:31:38;5.58;;;2.22;;
34695;SDS011;20918;51.138;17.370;2022-07-29T05:34:40;6.87;;;2.72;;
34695;SDS011;20918;51.138;17.370;2022-07-29T05:37:41;4.12;;;2.47;;
34695;SDS011;20918;51.138;17.370;2022-07-29T05:40:43;4.42;;;2.37;;
34695;SDS011;20918;51.138;17.370;2022-07-29T05:43:44;7.83;;;3.10;;
34695;SDS011;20918;51.138;17.370;2022-07-29T05:46:45;8.10;;;2.67;;
34695;SDS011;20918;51.138;17.370;2022-07-29T05:49:46;4.75;;;2.60;;
34695;SDS011;20918;51.138;17.370;2022-07-29T05:52:47;6.42;;;2.60;;
34695;SDS011;20918;51.138;17.370;2022-07-29T05:55:48;6.03;;;2.83;;
34695;SDS011;20918;51.138;17.370;2022-07-29T05:58:50;13.88;;;2.90;;
34695;SDS011;20918;51.138;17.370;2022-07-29T06:01:52;10.15;;;2.65;;
34695;SDS011;20918;51.138;17.370;2022-07-29T06:04:53;4.40;;;2.40;;
34695;SDS011;20918;51.138;17.370;2022-07-29T06:07:54;7.42;;;2.52;;
34695;SDS011;20918;51.138;17.370;2022-07-29T06:10:55;4.80;;;2.50;;
34695;SDS011;20918;51.138;17.370;2022-07-29T06:13:56;7.12;;;2.37;;
34695;SDS011;20918;51.138;17.370;2022-07-29T06:16:57;5.33;;;2.80;;
34695;SDS011;20918;51.138;17.370;2022-07-29T06:19:58;4.55;;;2.05;;
34695;SDS011;20918;51.138;17.370;2022-07-29T06:22:59;6.20;;;2.27;;
34695;SDS011;20918;51.138;17.370;2022-07-29T06:26:01;3.35;;;1.85;;
34695;SDS011;20918;51.138;17.370;2022-07-29T06:29:02;4.55;;;2.35;;
34695;SDS011;20918;51.138;17.370;2022-07-29T06:32:03;6.33;;;2.77;;
34695;SDS011;20918;51.138;17.370;2022-07-29T06:35:06;5.83;;;2.87;;
34695;SDS011;20918;51.138;17.370;2022-07-29T06:38:07;3.17;;;2.40;;
34695;SDS011;20918;51.138;17.370;2022-07-29T06:41:10;4.03;;;2.30;;
34695;SDS011;20918;51.138;17.370;2022-07-29T06:44:12;7.42;;;2.37;;
34695;SDS011;20918;51.138;17.370;2022-07-29T06:47:14;5.28;;;2.10;;
34695;SDS011;20918;51.138;17.370;2022-07-29T06:50:15;4.67;;;2.02;;
34695;SDS011;20918;51.138;17.370;2022-07-29T06:53:17;2.85;;;1.92;;
34695;SDS011;20918;51.138;17.370;2022-07-29T06:56:18;2.70;;;1.95;;
34695;SDS011;20918;51.138;17.370;2022-07-29T06:59:19;3.92;;;1.92;;
34695;SDS011;20918;51.138;17.370;2022-07-29T07:02:20;6.10;;;2.12;;
34695;SDS011;20918;51.138;17.370;2022-07-29T07:05:21;3.35;;;2.02;;
34695;SDS011;20918;51.138;17.370;2022-07-29T07:08:23;4.40;;;2.08;;
34695;SDS011;20918;51.138;17.370;2022-07-29T07:11:24;7.00;;;2.10;;
34695;SDS011;20918;51.138;17.370;2022-07-29T07:14:25;5.83;;;1.80;;
34695;SDS011;20918;51.138;17.370;2022-07-29T07:17:27;4.83;;;1.95;;
34695;SDS011;20918;51.138;17.370;2022-07-29T07:20:28;5.05;;;2.30;;
34695;SDS011;20918;51.138;17.370;2022-07-29T07:23:30;4.62;;;2.00;;
34695;SDS011;20918;51.138;17.370;2022-07-29T07:26:33;3.10;;;1.60;;
34695;SDS011;20918;51.138;17.370;2022-07-29T07:29:34;3.05;;;2.02;;
34695;SDS011;20918;51.138;17.370;2022-07-29T07:32:36;3.98;;;2.12;;
34695;SDS011;20918;51.138;17.370;2022-07-29T07:35:37;3.12;;;1.87;;
34695;SDS011;20918;51.138;17.370;2022-07-29T07:38:38;6.20;;;2.30;;
34695;SDS011;20918;51.138;17.370;2022-07-29T07:41:39;7.17;;;2.30;;
34695;SDS011;20918;51.138;17.370;2022-07-29T07:44:40;7.95;;;2.10;;
34695;SDS011;20918;51.138;17.370;2022-07-29T07:47:41;3.85;;;1.98;;
34695;SDS011;20918;51.138;17.370;2022-07-29T07:50:43;2.58;;;1.82;;
34695;SDS011;20918;51.138;17.370;2022-07-29T07:53:44;6.35;;;2.02;;
34695;SDS011;20918;51.138;17.370;2022-07-29T07:56:47;5.03;;;2.10;;
34695;SDS011;20918;51.138;17.370;2022-07-29T07:59:49;6.12;;;2.35;;
34695;SDS011;20918;51.138;17.370;2022-07-29T08:02:50;4.25;;;1.80;;
34695;SDS011;20918;51.138;17.370;2022-07-29T08:05:51;4.72;;;2.47;;
34695;SDS011;20918;51.138;17.370;2022-07-29T08:08:54;2.87;;;2.00;;
34695;SDS011;20918;51.138;17.370;2022-07-29T08:11:56;5.22;;;2.00;;
34695;SDS011;20918;51.138;17.370;2022-07-29T08:14:59;8.03;;;2.20;;
34695;SDS011;20918;51.138;17.370;2022-07-29T08:18:01;5.53;;;2.08;;
34695;SDS011;20918;51.138;17.370;2022-07-29T08:21:03;5.50;;;2.37;;
34695;SDS011;20918;51.138;17.370;2022-07-29T08:24:05;10.80;;;2.40;;
34695;SDS011;20918;51.138;17.370;2022-07-29T08:27:25;6.03;;;2.00;;
34695;SDS011;20918;51.138;17.370;2022-07-29T08:30:28;6.85;;;2.58;;
34695;SDS011;20918;51.138;17.370;2022-07-29T08:33:30;6.37;;;2.00;;
34695;SDS011;20918;51.138;17.370;2022-07-29T08:36:31;13.48;;;2.50;;
34695;SDS011;20918;51.138;17.370;2022-07-29T08:39:33;2.47;;;2.08;;
34695;SDS011;20918;51.138;17.370;2022-07-29T08:42:35;4.95;;;2.37;;
34695;SDS011;20918;51.138;17.370;2022-07-29T08:45:40;3.92;;;1.90;;
34695;SDS011;20918;51.138;17.370;2022-07-29T08:48:46;13.08;;;2.50;;
34695;SDS011;20918;51.138;17.370;2022-07-29T08:51:48;3.77;;;2.05;;
34695;SDS011;20918;51.138;17.370;2022-07-29T08:54:50;4.20;;;2.12;;
34695;SDS011;20918;51.138;17.370;2022-07-29T08:57:54;6.00;;;2.10;;
34695;SDS011;20918;51.138;17.370;2022-07-29T09:00:56;10.93;;;2.67;;
34695;SDS011;20918;51.138;17.370;2022-07-29T09:03:57;14.25;;;2.45;;
34695;SDS011;20918;51.138;17.370;2022-07-29T09:07:02;5.75;;;2.27;;
34695;SDS011;20918;51.138;17.370;2022-07-29T09:10:06;3.42;;;1.75;;
34695;SDS011;20918;51.138;17.370;2022-07-29T09:13:08;5.85;;;2.37;;
34695;SDS011;20918;51.138;17.370;2022-07-29T09:16:10;5.97;;;2.05;;
34695;SDS011;20918;51.138;17.370;2022-07-29T09:19:21;8.00;;;2.02;;
34695;SDS011;20918;51.138;17.370;2022-07-29T09:22:29;12.73;;;2.55;;
34695;SDS011;20918;51.138;17.370;2022-07-29T09:25:35;3.20;;;2.02;;
34695;SDS011;20918;51.138;17.370;2022-07-29T09:28:41;4.70;;;2.27;;
34695;SDS011;20918;51.138;17.370;2022-07-29T09:31:48;5.05;;;1.92;;
34695;SDS011;20918;51.138;17.370;2022-07-29T09:34:50;1.77;;;1.50;;
34695;SDS011;20918;51.138;17.370;2022-07-29T09:37:52;7.10;;;1.90;;
34695;SDS011;20918;51.138;17.370;2022-07-29T09:40:57;4.67;;;2.10;;
34695;SDS011;20918;51.138;17.370;2022-07-29T09:44:02;3.85;;;1.55;;
34695;SDS011;20918;51.138;17.370;2022-07-29T09:47:03;4.15;;;1.85;;
34695;SDS011;20918;51.138;17.370;2022-07-29T09:50:08;2.27;;;2.08;;
34695;SDS011;20918;51.138;17.370;2022-07-29T09:53:09;5.35;;;2.22;;
34695;SDS011;20918;51.138;17.370;2022-07-29T09:56:12;5.20;;;2.00;;
34695;SDS011;20918;51.138;17.370;2022-07-29T09:59:14;7.97;;;2.00;;
34695;SDS011;20918;51.138;17.370;2022-07-29T10:02:16;8.88;;;2.45;;
34695;SDS011;20918;51.138;17.370;2022-07-29T10:05:22;8.65;;;2.22;;
34695;SDS011;20918;51.138;17.370;2022-07-29T10:08:25;4.17;;;2.42;;
34695;SDS011;20918;51.138;17.370;2022-07-29T10:11:27;4.47;;;2.00;;
34695;SDS011;20918;51.138;17.370;2022-07-29T10:14:28;4.87;;;2.10;;
34695;SDS011;20918;51.138;17.370;2022-07-29T10:17:32;4.72;;;1.87;;
34695;SDS011;20918;51.138;17.370;2022-07-29T10:20:34;4.65;;;2.10;;
34695;SDS011;20918;51.138;17.370;2022-07-29T10:23:36;6.50;;;2.00;;
34695;SDS011;20918;51.138;17.370;2022-07-29T10:26:39;3.52;;;2.10;;
34695;SDS011;20918;51.138;17.370;2022-07-29T10:29:41;6.80;;;2.30;;
34695;SDS011;20918;51.138;17.370;2022-07-29T10:40:06;3.80;;;1.87;;
34695;SDS011;20918;51.138;17.370;2022-07-29T10:43:29;5.83;;;2.50;;
34695;SDS011;20918;51.138;17.370;2022-07-29T10:46:39;2.62;;;1.98;;
34695;SDS011;20918;51.138;17.370;2022-07-29T10:49:41;2.90;;;1.85;;
34695;SDS011;20918;51.138;17.370;2022-07-29T10:55:57;4.62;;;2.45;;
34695;SDS011;20918;51.138;17.370;2022-07-29T11:05:54;7.72;;;2.70;;
34695;SDS011;20918;51.138;17.370;2022-07-29T11:09:16;4.58;;;2.10;;
34695;SDS011;20918;51.138;17.370;2022-07-29T11:15:52;6.92;;;2.60;;
34695;SDS011;20918;51.138;17.370;2022-07-29T11:22:35;5.42;;;2.50;;
34695;SDS011;20918;51.138;17.370;2022-07-29T11:25:35;2.55;;;2.20;;
34695;SDS011;20918;51.138;17.370;2022-07-29T11:32:08;5.45;;;2.22;;
34695;SDS011;20918;51.138;17.370;2022-07-29T11:38:23;3.62;;;1.95;;
34695;SDS011;20918;51.138;17.370;2022-07-29T11:41:27;4.20;;;2.60;;
34695;SDS011;20918;51.138;17.370;2022-07-29T11:48:14;6.03;;;2.10;;
34695;SDS011;20918;51.138;17.370;2022-07-29T11:51:17;6.05;;;2.08;;
34695;SDS011;20918;51.138;17.370;2022-07-29T11:54:23;3.25;;;2.25;;
34695;SDS011;20918;51.138;17.370;2022-07-29T11:57:31;5.25;;;2.40;;
34695;SDS011;20918;51.138;17.370;2022-07-29T12:00:35;5.33;;;2.35;;
34695;SDS011;20918;51.138;17.370;2022-07-29T12:03:40;7.20;;;2.70;;
34695;SDS011;20918;51.138;17.370;2022-07-29T12:06:41;3.12;;;2.40;;
34695;SDS011;20918;51.138;17.370;2022-07-29T12:09:51;4.37;;;2.42;;
34695;SDS011;20918;51.138;17.370;2022-07-29T12:12:54;4.53;;;2.37;;
34695;SDS011;20918;51.138;17.370;2022-07-29T12:15:55;4.87;;;2.10;;
34695;SDS011;20918;51.138;17.370;2022-07-29T12:19:04;5.17;;;2.30;;
34695;SDS011;20918;51.138;17.370;2022-07-29T12:22:05;7.08;;;2.25;;
34695;SDS011;20918;51.138;17.370;2022-07-29T12:25:12;6.80;;;2.80;;
34695;SDS011;20918;51.138;17.370;2022-07-29T12:28:21;7.72;;;2.98;;
34695;SDS011;20918;51.138;17.370;2022-07-29T12:31:22;4.78;;;2.62;;
34695;SDS011;20918;51.138;17.370;2022-07-29T12:34:24;4.15;;;2.25;;
34695;SDS011;20918;51.138;17.370;2022-07-29T12:37:27;4.80;;;2.27;;
34695;SDS011;20918;51.138;17.370;2022-07-29T12:40:29;4.28;;;2.45;;
34695;SDS011;20918;51.138;17.370;2022-07-29T12:43:30;7.67;;;2.72;;
34695;SDS011;20918;51.138;17.370;2022-07-29T12:46:31;8.73;;;2.62;;
34695;SDS011;20918;51.138;17.370;2022-07-29T12:49:33;8.50;;;2.60;;
34695;SDS011;20918;51.138;17.370;2022-07-29T12:52:35;6.50;;;2.25;;
34695;SDS011;20918;51.138;17.370;2022-07-29T12:55:39;5.17;;;2.58;;
34695;SDS011;20918;51.138;17.370;2022-07-29T12:58:43;3.15;;;2.33;;
34695;SDS011;20918;51.138;17.370;2022-07-29T13:01:45;3.40;;;2.55;;
34695;SDS011;20918;51.138;17.370;2022-07-29T13:04:56;3.85;;;2.40;;
34695;SDS011;20918;51.138;17.370;2022-07-29T13:08:09;3.10;;;2.27;;
34695;SDS011;20918;51.138;17.370;2022-07-29T13:11:29;6.72;;;3.10;;
34695;SDS011;20918;51.138;17.370;2022-07-29T13:14:42;7.67;;;2.80;;
34695;SDS011;20918;51.138;17.370;2022-07-29T13:17:43;6.40;;;3.00;;
34695;SDS011;20918;51.138;17.370;2022-07-29T13:20:44;3.92;;;2.50;;
34695;SDS011;20918;51.138;17.370;2022-07-29T13:23:45;3.90;;;2.22;;
34695;SDS011;20918;51.138;17.370;2022-07-29T13:26:46;5.92;;;2.50;;
34695;SDS011;20918;51.138;17.370;2022-07-29T13:29:47;7.75;;;3.12;;
34695;SDS011;20918;51.138;17.370;2022-07-29T13:32:51;3.72;;;2.50;;
34695;SDS011;20918;51.138;17.370;2022-07-29T13:35:53;7.67;;;2.58;;
34695;SDS011;20918;51.138;17.370;2022-07-29T13:38:54;4.92;;;3.00;;
34695;SDS011;20918;51.138;17.370;2022-07-29T13:41:55;4.58;;;2.77;;
34695;SDS011;20918;51.138;17.370;2022-07-29T13:44:57;5.47;;;2.77;;
34695;SDS011;20918;51.138;17.370;2022-07-29T13:47:58;10.75;;;2.92;;
34695;SDS011;20918;51.138;17.370;2022-07-29T13:50:59;4.00;;;2.30;;
34695;SDS011;20918;51.138;17.370;2022-07-29T13:54:00;4.47;;;2.67;;
34695;SDS011;20918;51.138;17.370;2022-07-29T13:57:04;3.50;;;2.40;;
34695;SDS011;20918;51.138;17.370;2022-07-29T14:00:06;5.47;;;2.60;;
34695;SDS011;20918;51.138;17.370;2022-07-29T14:03:10;6.00;;;2.12;;
34695;SDS011;20918;51.138;17.370;2022-07-29T14:06:11;5.00;;;2.25;;
34695;SDS011;20918;51.138;17.370;2022-07-29T14:09:13;6.47;;;2.67;;
34695;SDS011;20918;51.138;17.370;2022-07-29T14:12:18;8.00;;;2.80;;
34695;SDS011;20918;51.138;17.370;2022-07-29T14:15:20;5.22;;;2.37;;
34695;SDS011;20918;51.138;17.370;2022-07-29T14:18:22;4.17;;;2.80;;
34695;SDS011;20918;51.138;17.370;2022-07-29T14:21:23;7.00;;;2.70;;
34695;SDS011;20918;51.138;17.370;2022-07-29T14:24:24;4.85;;;2.80;;
34695;SDS011;20918;51.138;17.370;2022-07-29T14:27:25;7.45;;;2.65;;
34695;SDS011;20918;51.138;17.370;2022-07-29T14:30:26;5.55;;;2.60;;
34695;SDS011;20918;51.138;17.370;2022-07-29T14:33:27;4.30;;;2.65;;
34695;SDS011;20918;51.138;17.370;2022-07-29T14:36:28;6.70;;;3.02;;
34695;SDS011;20918;51.138;17.370;2022-07-29T14:39:29;7.97;;;2.90;;
34695;SDS011;20918;51.138;17.370;2022-07-29T14:42:30;4.15;;;2.80;;
34695;SDS011;20918;51.138;17.370;2022-07-29T14:45:36;5.22;;;2.92;;
34695;SDS011;20918;51.138;17.370;2022-07-29T14:48:39;6.65;;;3.20;;
34695;SDS011;20918;51.138;17.370;2022-07-29T14:51:40;6.87;;;2.90;;
34695;SDS011;20918;51.138;17.370;2022-07-29T14:54:41;6.05;;;3.10;;
34695;SDS011;20918;51.138;17.370;2022-07-29T14:57:42;6.50;;;3.20;;
34695;SDS011;20918;51.138;17.370;2022-07-29T15:00:44;6.62;;;2.77;;
34695;SDS011;20918;51.138;17.370;2022-07-29T15:03:45;3.98;;;2.60;;
34695;SDS011;20918;51.138;17.370;2022-07-29T15:06:46;4.10;;;2.67;;
34695;SDS011;20918;51.138;17.370;2022-07-29T15:09:47;5.62;;;2.87;;
34695;SDS011;20918;51.138;17.370;2022-07-29T15:12:48;8.33;;;2.50;;
34695;SDS011;20918;51.138;17.370;2022-07-29T15:15:49;7.47;;;3.02;;
34695;SDS011;20918;51.138;17.370;2022-07-29T15:18:50;8.85;;;2.87;;
34695;SDS011;20918;51.138;17.370;2022-07-29T15:21:51;5.67;;;2.60;;
34695;SDS011;20918;51.138;17.370;2022-07-29T15:24:52;3.95;;;2.72;;
34695;SDS011;20918;51.138;17.370;2022-07-29T15:27:54;6.75;;;2.95;;
34695;SDS011;20918;51.138;17.370;2022-07-29T15:30:55;9.13;;;3.22;;
34695;SDS011;20918;51.138;17.370;2022-07-29T15:33:56;7.10;;;2.80;;
34695;SDS011;20918;51.138;17.370;2022-07-29T15:36:57;6.05;;;2.67;;
34695;SDS011;20918;51.138;17.370;2022-07-29T15:39:58;3.75;;;3.17;;
34695;SDS011;20918;51.138;17.370;2022-07-29T15:43:01;3.40;;;2.62;;
34695;SDS011;20918;51.138;17.370;2022-07-29T15:46:05;6.80;;;2.92;;
34695;SDS011;20918;51.138;17.370;2022-07-29T15:49:25;9.65;;;3.08;;
34695;SDS011;20918;51.138;17.370;2022-07-29T15:52:32;4.28;;;2.87;;
34695;SDS011;20918;51.138;17.370;2022-07-29T15:55:33;4.00;;;2.62;;
34695;SDS011;20918;51.138;17.370;2022-07-29T15:58:34;5.25;;;2.80;;
34695;SDS011;20918;51.138;17.370;2022-07-29T16:01:36;4.42;;;2.55;;
34695;SDS011;20918;51.138;17.370;2022-07-29T16:04:37;6.97;;;3.40;;
34695;SDS011;20918;51.138;17.370;2022-07-29T16:07:38;4.10;;;2.50;;
34695;SDS011;20918;51.138;17.370;2022-07-29T16:10:39;10.93;;;3.40;;
34695;SDS011;20918;51.138;17.370;2022-07-29T16:13:40;9.20;;;3.35;;
34695;SDS011;20918;51.138;17.370;2022-07-29T16:16:41;10.00;;;2.47;;
34695;SDS011;20918;51.138;17.370;2022-07-29T16:19:43;6.00;;;2.75;;
34695;SDS011;20918;51.138;17.370;2022-07-29T16:22:45;6.15;;;3.00;;
34695;SDS011;20918;51.138;17.370;2022-07-29T16:25:46;6.17;;;2.65;;
34695;SDS011;20918;51.138;17.370;2022-07-29T16:28:47;13.48;;;2.72;;
34695;SDS011;20918;51.138;17.370;2022-07-29T16:31:49;9.55;;;3.00;;
34695;SDS011;20918;51.138;17.370;2022-07-29T16:34:50;5.05;;;2.90;;
34695;SDS011;20918;51.138;17.370;2022-07-29T16:37:54;5.80;;;3.30;;
34695;SDS011;20918;51.138;17.370;2022-07-29T16:40:55;5.47;;;2.67;;
34695;SDS011;20918;51.138;17.370;2022-07-29T16:43:56;4.33;;;2.80;;
34695;SDS011;20918;51.138;17.370;2022-07-29T16:46:58;4.12;;;2.67;;
34695;SDS011;20918;51.138;17.370;2022-07-29T16:49:59;7.28;;;2.87;;
34695;SDS011;20918;51.138;17.370;2022-07-29T16:53:00;11.68;;;3.50;;
34695;SDS011;20918;51.138;17.370;2022-07-29T16:56:02;9.28;;;3.15;;
34695;SDS011;20918;51.138;17.370;2022-07-29T16:59:03;9.03;;;3.42;;
34695;SDS011;20918;51.138;17.370;2022-07-29T17:02:04;8.58;;;3.27;;
34695;SDS011;20918;51.138;17.370;2022-07-29T17:05:05;9.58;;;3.60;;
34695;SDS011;20918;51.138;17.370;2022-07-29T17:08:07;10.63;;;3.20;;
34695;SDS011;20918;51.138;17.370;2022-07-29T17:11:08;9.03;;;3.42;;
34695;SDS011;20918;51.138;17.370;2022-07-29T17:14:09;8.08;;;3.17;;
34695;SDS011;20918;51.138;17.370;2022-07-29T17:17:11;4.78;;;3.25;;
34695;SDS011;20918;51.138;17.370;2022-07-29T17:20:12;5.47;;;3.17;;
34695;SDS011;20918;51.138;17.370;2022-07-29T17:23:13;6.08;;;3.17;;
34695;SDS011;20918;51.138;17.370;2022-07-29T17:26:15;14.87;;;3.70;;
34695;SDS011;20918;51.138;17.370;2022-07-29T17:29:16;7.30;;;3.42;;
34695;SDS011;20918;51.138;17.370;2022-07-29T17:32:18;6.10;;;3.55;;
34695;SDS011;20918;51.138;17.370;2022-07-29T17:35:19;3.70;;;2.85;;
34695;SDS011;20918;51.138;17.370;2022-07-29T17:38:38;3.35;;;2.62;;
34695;SDS011;20918;51.138;17.370;2022-07-29T17:41:39;3.25;;;2.65;;
34695;SDS011;20918;51.138;17.370;2022-07-29T17:44:41;6.37;;;3.25;;
34695;SDS011;20918;51.138;17.370;2022-07-29T17:47:42;6.75;;;3.02;;
34695;SDS011;20918;51.138;17.370;2022-07-29T17:50:45;6.12;;;3.60;;
34695;SDS011;20918;51.138;17.370;2022-07-29T17:53:47;6.35;;;3.30;;
34695;SDS011;20918;51.138;17.370;2022-07-29T17:56:49;7.60;;;2.98;;
34695;SDS011;20918;51.138;17.370;2022-07-29T17:59:50;7.80;;;3.40;;
34695;SDS011;20918;51.138;17.370;2022-07-29T18:02:51;6.45;;;3.10;;
34695;SDS011;20918;51.138;17.370;2022-07-29T18:05:52;4.75;;;3.22;;
34695;SDS011;20918;51.138;17.370;2022-07-29T18:08:54;4.85;;;3.27;;
34695;SDS011;20918;51.138;17.370;2022-07-29T18:11:55;5.60;;;3.80;;
34695;SDS011;20918;51.138;17.370;2022-07-29T18:14:56;5.20;;;3.20;;
34695;SDS011;20918;51.138;17.370;2022-07-29T18:17:57;11.25;;;3.90;;
34695;SDS011;20918;51.138;17.370;2022-07-29T18:20:59;7.03;;;3.55;;
34695;SDS011;20918;51.138;17.370;2022-07-29T18:24:01;6.35;;;3.67;;
34695;SDS011;20918;51.138;17.370;2022-07-29T18:27:02;7.67;;;3.50;;
34695;SDS011;20918;51.138;17.370;2022-07-29T18:30:04;6.28;;;3.47;;
34695;SDS011;20918;51.138;17.370;2022-07-29T18:33:07;3.52;;;2.98;;
34695;SDS011;20918;51.138;17.370;2022-07-29T18:36:10;4.50;;;3.35;;
34695;SDS011;20918;51.138;17.370;2022-07-29T18:39:11;7.58;;;3.02;;
34695;SDS011;20918;51.138;17.370;2022-07-29T18:42:14;7.65;;;3.72;;
34695;SDS011;20918;51.138;17.370;2022-07-29T18:45:15;4.65;;;3.60;;
34695;SDS011;20918;51.138;17.370;2022-07-29T18:48:16;4.22;;;3.72;;
34695;SDS011;20918;51.138;17.370;2022-07-29T18:51:17;7.40;;;3.72;;